sensor_id;sensor_type;location;lat;lon;timestamp;temperature;humidity
3380;DHT22;1703;51.964;7.642;2023-05-10T00:02:04;15.50;99.90
3380;DHT22;1703;51.964;7.642;2023-05-10T00:04:31;15.50;99.90
3380;DHT22;1703;51.964;7.642;2023-05-10T00:06:58;15.50;99.90
3380;DHT22;1703;51.964;7.642;2023-05-10T00:09:24;15.50;99.90
3380;DHT22;1703;51.964;7.642;2023-05-10T00:11:53;15.50;99.90
3380;DHT22;1703;51.964;7.642;2023-05-10T00:14:19;15.50;99.90
3380;DHT22;1703;51.964;7.642;2023-05-10T00:16:46;15.40;99.90
3380;DHT22;1703;51.964;7.642;2023-05-10T00:19:13;15.40;99.90
3380;DHT22;1703;51.964;7.642;2023-05-10T00:21:39;15.40;99.90
3380;DHT22;1703;51.964;7.642;2023-05-10T00:24:06;15.40;99.90
3380;DHT22;1703;51.964;7.642;2023-05-10T00:26:33;15.40;99.90
3380;DHT22;1703;51.964;7.642;2023-05-10T00:29:02;15.40;99.90
3380;DHT22;1703;51.964;7.642;2023-05-10T00:31:29;15.40;99.90
3380;DHT22;1703;51.964;7.642;2023-05-10T00:33:56;15.40;99.90
3380;DHT22;1703;51.964;7.642;2023-05-10T00:36:23;15.30;99.90
3380;DHT22;1703;51.964;7.642;2023-05-10T00:38:50;15.30;99.90
3380;DHT22;1703;51.964;7.642;2023-05-10T00:41:17;15.30;99.90
3380;DHT22;1703;51.964;7.642;2023-05-10T00:43:45;15.30;99.90
3380;DHT22;1703;51.964;7.642;2023-05-10T00:46:14;15.30;99.90
3380;DHT22;1703;51.964;7.642;2023-05-10T00:48:41;15.30;99.90
3380;DHT22;1703;51.964;7.642;2023-05-10T00:51:08;15.30;99.90
3380;DHT22;1703;51.964;7.642;2023-05-10T00:53:35;15.20;99.90
3380;DHT22;1703;51.964;7.642;2023-05-10T00:56:02;15.30;99.90
3380;DHT22;1703;51.964;7.642;2023-05-10T00:58:29;15.30;99.90
3380;DHT22;1703;51.964;7.642;2023-05-10T01:00:56;15.30;99.90
3380;DHT22;1703;51.964;7.642;2023-05-10T01:03:25;15.20;99.90
3380;DHT22;1703;51.964;7.642;2023-05-10T01:05:52;15.20;99.90
3380;DHT22;1703;51.964;7.642;2023-05-10T01:08:19;15.20;99.90
3380;DHT22;1703;51.964;7.642;2023-05-10T01:10:46;15.20;99.90
3380;DHT22;1703;51.964;7.642;2023-05-10T01:13:31;15.10;99.90
3380;DHT22;1703;51.964;7.642;2023-05-10T01:15:59;15.10;99.90
3380;DHT22;1703;51.964;7.642;2023-05-10T01:18:29;15.10;99.90
3380;DHT22;1703;51.964;7.642;2023-05-10T01:21:08;15.10;99.90
3380;DHT22;1703;51.964;7.642;2023-05-10T01:23:53;14.90;99.90
3380;DHT22;1703;51.964;7.642;2023-05-10T01:30:01;14.90;99.90
3380;DHT22;1703;51.964;7.642;2023-05-10T01:32:36;14.90;99.90
3380;DHT22;1703;51.964;7.642;2023-05-10T01:35:10;14.90;99.90
3380;DHT22;1703;51.964;7.642;2023-05-10T01:37:44;14.80;99.90
3380;DHT22;1703;51.964;7.642;2023-05-10T01:40:17;14.80;99.90
3380;DHT22;1703;51.964;7.642;2023-05-10T01:42:51;14.90;99.90
3380;DHT22;1703;51.964;7.642;2023-05-10T01:45:24;14.80;99.90
3380;DHT22;1703;51.964;7.642;2023-05-10T01:47:58;14.90;99.90
3380;DHT22;1703;51.964;7.642;2023-05-10T01:50:30;14.80;99.90
3380;DHT22;1703;51.964;7.642;2023-05-10T01:52:58;14.80;99.90
3380;DHT22;1703;51.964;7.642;2023-05-10T01:55:29;14.70;99.90
3380;DHT22;1703;51.964;7.642;2023-05-10T01:58:02;14.70;99.90
3380;DHT22;1703;51.964;7.642;2023-05-10T02:00:31;14.60;99.90
3380;DHT22;1703;51.964;7.642;2023-05-10T02:03:00;14.40;99.90
3380;DHT22;1703;51.964;7.642;2023-05-10T02:05:29;14.40;99.90
3380;DHT22;1703;51.964;7.642;2023-05-10T02:07:57;14.30;99.90
3380;DHT22;1703;51.964;7.642;2023-05-10T02:10:24;14.30;99.90
3380;DHT22;1703;51.964;7.642;2023-05-10T02:12:52;14.20;99.90
3380;DHT22;1703;51.964;7.642;2023-05-10T02:15:22;14.20;99.90
3380;DHT22;1703;51.964;7.642;2023-05-10T02:17:50;14.20;99.90
3380;DHT22;1703;51.964;7.642;2023-05-10T02:20:19;14.10;99.90
3380;DHT22;1703;51.964;7.642;2023-05-10T02:22:48;14.20;99.90
3380;DHT22;1703;51.964;7.642;2023-05-10T02:25:16;14.20;99.90
3380;DHT22;1703;51.964;7.642;2023-05-10T02:27:44;14.20;99.90
3380;DHT22;1703;51.964;7.642;2023-05-10T02:30:14;14.20;99.90
3380;DHT22;1703;51.964;7.642;2023-05-10T02:32:41;14.20;99.90
3380;DHT22;1703;51.964;7.642;2023-05-10T02:35:09;14.20;99.90
3380;DHT22;1703;51.964;7.642;2023-05-10T02:37:39;14.10;99.90
3380;DHT22;1703;51.964;7.642;2023-05-10T02:40:07;14.10;99.90
3380;DHT22;1703;51.964;7.642;2023-05-10T02:42:37;14.10;99.90
3380;DHT22;1703;51.964;7.642;2023-05-10T02:45:10;14.10;99.90
3380;DHT22;1703;51.964;7.642;2023-05-10T02:47:38;14.10;99.90
3380;DHT22;1703;51.964;7.642;2023-05-10T02:50:05;14.00;99.90
3380;DHT22;1703;51.964;7.642;2023-05-10T02:52:40;14.00;99.90
3380;DHT22;1703;51.964;7.642;2023-05-10T02:55:11;14.10;99.90
3380;DHT22;1703;51.964;7.642;2023-05-10T02:57:43;14.10;99.90
3380;DHT22;1703;51.964;7.642;2023-05-10T03:00:11;14.10;99.90
3380;DHT22;1703;51.964;7.642;2023-05-10T03:02:38;14.10;99.90
3380;DHT22;1703;51.964;7.642;2023-05-10T03:05:05;14.10;99.90
3380;DHT22;1703;51.964;7.642;2023-05-10T03:07:33;14.10;99.90
3380;DHT22;1703;51.964;7.642;2023-05-10T03:10:01;14.10;99.90
3380;DHT22;1703;51.964;7.642;2023-05-10T03:12:38;14.10;99.90
3380;DHT22;1703;51.964;7.642;2023-05-10T03:15:19;14.20;99.90
3380;DHT22;1703;51.964;7.642;2023-05-10T03:17:56;14.20;99.90
3380;DHT22;1703;51.964;7.642;2023-05-10T03:20:26;14.10;99.90
3380;DHT22;1703;51.964;7.642;2023-05-10T03:23:00;14.10;99.90
3380;DHT22;1703;51.964;7.642;2023-05-10T03:25:31;14.10;99.90
3380;DHT22;1703;51.964;7.642;2023-05-10T03:27:58;14.00;99.90
3380;DHT22;1703;51.964;7.642;2023-05-10T03:30:27;14.00;99.90
3380;DHT22;1703;51.964;7.642;2023-05-10T03:32:56;14.00;99.90
3380;DHT22;1703;51.964;7.642;2023-05-10T03:35:24;14.10;99.90
3380;DHT22;1703;51.964;7.642;2023-05-10T03:37:51;14.00;99.90
3380;DHT22;1703;51.964;7.642;2023-05-10T03:40:17;14.10;99.90
3380;DHT22;1703;51.964;7.642;2023-05-10T03:42:46;14.00;99.90
3380;DHT22;1703;51.964;7.642;2023-05-10T03:45:12;14.10;99.90
3380;DHT22;1703;51.964;7.642;2023-05-10T03:47:40;14.00;99.90
3380;DHT22;1703;51.964;7.642;2023-05-10T03:50:07;14.00;99.90
3380;DHT22;1703;51.964;7.642;2023-05-10T03:52:35;14.10;99.90
3380;DHT22;1703;51.964;7.642;2023-05-10T03:55:05;14.00;99.90
3380;DHT22;1703;51.964;7.642;2023-05-10T03:57:32;14.00;99.90
3380;DHT22;1703;51.964;7.642;2023-05-10T04:00:01;13.90;99.90
3380;DHT22;1703;51.964;7.642;2023-05-10T04:02:28;13.90;99.90
3380;DHT22;1703;51.964;7.642;2023-05-10T04:04:55;13.90;99.90
3380;DHT22;1703;51.964;7.642;2023-05-10T04:07:22;13.90;99.90
3380;DHT22;1703;51.964;7.642;2023-05-10T04:09:49;13.90;99.90
3380;DHT22;1703;51.964;7.642;2023-05-10T04:12:16;13.90;99.90
3380;DHT22;1703;51.964;7.642;2023-05-10T04:14:43;13.90;99.90
3380;DHT22;1703;51.964;7.642;2023-05-10T04:17:11;14.00;99.90
3380;DHT22;1703;51.964;7.642;2023-05-10T04:19:38;14.00;99.90
3380;DHT22;1703;51.964;7.642;2023-05-10T04:22:05;14.00;99.90
3380;DHT22;1703;51.964;7.642;2023-05-10T04:24:32;14.10;99.90
3380;DHT22;1703;51.964;7.642;2023-05-10T04:26:58;14.10;99.90
3380;DHT22;1703;51.964;7.642;2023-05-10T04:29:26;14.00;99.90
3380;DHT22;1703;51.964;7.642;2023-05-10T04:31:53;14.00;99.90
3380;DHT22;1703;51.964;7.642;2023-05-10T04:34:23;14.10;99.90
3380;DHT22;1703;51.964;7.642;2023-05-10T04:36:50;14.10;99.90
3380;DHT22;1703;51.964;7.642;2023-05-10T04:39:17;14.00;99.90
3380;DHT22;1703;51.964;7.642;2023-05-10T04:41:43;14.00;99.90
3380;DHT22;1703;51.964;7.642;2023-05-10T04:44:10;14.00;99.90
3380;DHT22;1703;51.964;7.642;2023-05-10T04:46:37;14.10;99.90
3380;DHT22;1703;51.964;7.642;2023-05-10T04:49:04;14.00;99.90
3380;DHT22;1703;51.964;7.642;2023-05-10T04:51:32;14.00;99.90
3380;DHT22;1703;51.964;7.642;2023-05-10T04:53:59;14.00;99.90
3380;DHT22;1703;51.964;7.642;2023-05-10T04:56:26;14.00;99.90
3380;DHT22;1703;51.964;7.642;2023-05-10T04:58:52;14.00;99.90
3380;DHT22;1703;51.964;7.642;2023-05-10T05:01:19;14.10;99.90
3380;DHT22;1703;51.964;7.642;2023-05-10T05:03:46;14.10;99.90
3380;DHT22;1703;51.964;7.642;2023-05-10T05:06:13;14.20;99.90
3380;DHT22;1703;51.964;7.642;2023-05-10T05:08:41;14.20;99.90
3380;DHT22;1703;51.964;7.642;2023-05-10T05:11:08;14.20;99.90
3380;DHT22;1703;51.964;7.642;2023-05-10T05:13:35;14.20;99.90
3380;DHT22;1703;51.964;7.642;2023-05-10T05:16:02;14.20;99.90
3380;DHT22;1703;51.964;7.642;2023-05-10T05:18:28;14.30;99.90
3380;DHT22;1703;51.964;7.642;2023-05-10T05:20:55;14.30;99.90
3380;DHT22;1703;51.964;7.642;2023-05-10T05:23:22;14.30;99.90
3380;DHT22;1703;51.964;7.642;2023-05-10T05:25:52;14.30;99.90
3380;DHT22;1703;51.964;7.642;2023-05-10T05:28:20;14.50;99.90
3380;DHT22;1703;51.964;7.642;2023-05-10T05:30:46;14.50;99.90
3380;DHT22;1703;51.964;7.642;2023-05-10T05:33:14;14.40;99.90
3380;DHT22;1703;51.964;7.642;2023-05-10T05:35:41;14.40;99.90
3380;DHT22;1703;51.964;7.642;2023-05-10T05:38:12;14.30;99.90
3380;DHT22;1703;51.964;7.642;2023-05-10T05:40:39;14.40;99.90
3380;DHT22;1703;51.964;7.642;2023-05-10T05:43:07;14.40;99.90
3380;DHT22;1703;51.964;7.642;2023-05-10T05:45:34;14.30;99.90
3380;DHT22;1703;51.964;7.642;2023-05-10T05:48:01;14.20;99.90
3380;DHT22;1703;51.964;7.642;2023-05-10T05:50:28;14.30;99.90
3380;DHT22;1703;51.964;7.642;2023-05-10T05:52:55;14.30;99.90
3380;DHT22;1703;51.964;7.642;2023-05-10T05:55:22;14.40;99.90
3380;DHT22;1703;51.964;7.642;2023-05-10T05:57:49;14.40;99.90
3380;DHT22;1703;51.964;7.642;2023-05-10T06:00:18;14.40;99.90
3380;DHT22;1703;51.964;7.642;2023-05-10T06:02:44;14.40;99.90
3380;DHT22;1703;51.964;7.642;2023-05-10T06:05:11;14.40;99.90
3380;DHT22;1703;51.964;7.642;2023-05-10T06:07:39;14.50;99.90
3380;DHT22;1703;51.964;7.642;2023-05-10T06:10:07;14.50;99.90
3380;DHT22;1703;51.964;7.642;2023-05-10T06:12:34;14.50;99.90
3380;DHT22;1703;51.964;7.642;2023-05-10T06:15:01;14.50;99.90
3380;DHT22;1703;51.964;7.642;2023-05-10T06:17:29;14.70;99.90
3380;DHT22;1703;51.964;7.642;2023-05-10T06:19:56;14.70;99.90
3380;DHT22;1703;51.964;7.642;2023-05-10T06:22:23;14.70;99.90
3380;DHT22;1703;51.964;7.642;2023-05-10T06:24:50;14.60;99.90
3380;DHT22;1703;51.964;7.642;2023-05-10T06:27:17;14.70;99.90
3380;DHT22;1703;51.964;7.642;2023-05-10T06:29:44;14.70;99.90
3380;DHT22;1703;51.964;7.642;2023-05-10T06:32:10;14.70;99.90
3380;DHT22;1703;51.964;7.642;2023-05-10T06:34:38;14.70;99.90
3380;DHT22;1703;51.964;7.642;2023-05-10T06:37:05;14.70;99.90
3380;DHT22;1703;51.964;7.642;2023-05-10T06:39:32;14.80;99.90
3380;DHT22;1703;51.964;7.642;2023-05-10T06:41:59;14.80;99.90
3380;DHT22;1703;51.964;7.642;2023-05-10T06:44:31;14.80;99.90
3380;DHT22;1703;51.964;7.642;2023-05-10T06:46:58;14.70;99.90
3380;DHT22;1703;51.964;7.642;2023-05-10T06:49:25;14.70;99.90
3380;DHT22;1703;51.964;7.642;2023-05-10T06:51:55;14.70;99.90
3380;DHT22;1703;51.964;7.642;2023-05-10T06:54:22;14.70;99.90
3380;DHT22;1703;51.964;7.642;2023-05-10T06:56:49;14.70;99.90
3380;DHT22;1703;51.964;7.642;2023-05-10T06:59:15;14.70;99.90
3380;DHT22;1703;51.964;7.642;2023-05-10T07:01:44;14.70;99.90
3380;DHT22;1703;51.964;7.642;2023-05-10T07:04:11;14.70;99.90
3380;DHT22;1703;51.964;7.642;2023-05-10T07:06:38;14.70;99.90
3380;DHT22;1703;51.964;7.642;2023-05-10T07:09:06;14.70;99.90
3380;DHT22;1703;51.964;7.642;2023-05-10T07:11:34;14.50;99.90
3380;DHT22;1703;51.964;7.642;2023-05-10T07:14:01;14.60;99.90
3380;DHT22;1703;51.964;7.642;2023-05-10T07:16:28;14.70;99.90
3380;DHT22;1703;51.964;7.642;2023-05-10T07:18:55;14.60;99.90
3380;DHT22;1703;51.964;7.642;2023-05-10T07:21:22;14.70;99.90
3380;DHT22;1703;51.964;7.642;2023-05-10T07:23:49;14.70;99.90
3380;DHT22;1703;51.964;7.642;2023-05-10T07:26:18;14.80;99.90
3380;DHT22;1703;51.964;7.642;2023-05-10T07:28:46;14.70;99.90
3380;DHT22;1703;51.964;7.642;2023-05-10T07:31:13;14.80;99.90
3380;DHT22;1703;51.964;7.642;2023-05-10T07:33:40;14.90;99.90
3380;DHT22;1703;51.964;7.642;2023-05-10T07:36:07;14.90;99.90
3380;DHT22;1703;51.964;7.642;2023-05-10T07:38:33;14.90;99.90
3380;DHT22;1703;51.964;7.642;2023-05-10T07:41:00;14.90;99.90
3380;DHT22;1703;51.964;7.642;2023-05-10T07:43:28;15.00;99.90
3380;DHT22;1703;51.964;7.642;2023-05-10T07:45:55;15.10;99.90
3380;DHT22;1703;51.964;7.642;2023-05-10T07:48:23;15.10;99.90
3380;DHT22;1703;51.964;7.642;2023-05-10T07:50:49;15.10;99.90
3380;DHT22;1703;51.964;7.642;2023-05-10T07:53:16;15.10;99.90
3380;DHT22;1703;51.964;7.642;2023-05-10T07:55:44;15.10;99.90
3380;DHT22;1703;51.964;7.642;2023-05-10T07:58:20;15.20;99.90
3380;DHT22;1703;51.964;7.642;2023-05-10T08:00:48;15.30;99.90
3380;DHT22;1703;51.964;7.642;2023-05-10T08:03:15;15.40;99.90
3380;DHT22;1703;51.964;7.642;2023-05-10T08:05:42;15.40;99.90
3380;DHT22;1703;51.964;7.642;2023-05-10T08:08:09;15.50;99.90
3380;DHT22;1703;51.964;7.642;2023-05-10T08:10:36;15.60;99.90
3380;DHT22;1703;51.964;7.642;2023-05-10T08:13:02;15.60;99.90
3380;DHT22;1703;51.964;7.642;2023-05-10T08:15:29;15.60;99.90
3380;DHT22;1703;51.964;7.642;2023-05-10T08:18:00;15.60;99.90
3380;DHT22;1703;51.964;7.642;2023-05-10T08:20:26;15.60;99.90
3380;DHT22;1703;51.964;7.642;2023-05-10T08:22:53;15.60;99.90
3380;DHT22;1703;51.964;7.642;2023-05-10T08:25:20;15.80;99.90
3380;DHT22;1703;51.964;7.642;2023-05-10T08:27:47;15.90;99.90
3380;DHT22;1703;51.964;7.642;2023-05-10T08:30:14;15.90;99.90
3380;DHT22;1703;51.964;7.642;2023-05-10T08:32:41;16.00;99.90
3380;DHT22;1703;51.964;7.642;2023-05-10T08:35:09;16.10;99.90
3380;DHT22;1703;51.964;7.642;2023-05-10T08:37:36;16.20;99.90
3380;DHT22;1703;51.964;7.642;2023-05-10T08:40:04;16.20;99.90
3380;DHT22;1703;51.964;7.642;2023-05-10T08:42:34;16.10;99.90
3380;DHT22;1703;51.964;7.642;2023-05-10T08:45:04;16.30;99.90
3380;DHT22;1703;51.964;7.642;2023-05-10T08:47:32;16.30;99.90
3380;DHT22;1703;51.964;7.642;2023-05-10T08:49:59;16.20;99.90
3380;DHT22;1703;51.964;7.642;2023-05-10T08:52:28;16.20;99.90
3380;DHT22;1703;51.964;7.642;2023-05-10T08:54:56;16.30;99.90
3380;DHT22;1703;51.964;7.642;2023-05-10T08:57:23;16.30;99.90
3380;DHT22;1703;51.964;7.642;2023-05-10T08:59:50;16.40;99.90
3380;DHT22;1703;51.964;7.642;2023-05-10T09:02:18;16.40;99.90
3380;DHT22;1703;51.964;7.642;2023-05-10T09:04:46;16.30;99.90
3380;DHT22;1703;51.964;7.642;2023-05-10T09:07:14;16.40;99.90
3380;DHT22;1703;51.964;7.642;2023-05-10T09:09:43;16.60;99.90
3380;DHT22;1703;51.964;7.642;2023-05-10T09:12:10;16.70;99.90
3380;DHT22;1703;51.964;7.642;2023-05-10T09:14:37;16.70;99.90
3380;DHT22;1703;51.964;7.642;2023-05-10T09:17:05;16.80;99.90
3380;DHT22;1703;51.964;7.642;2023-05-10T09:19:32;16.70;99.90
3380;DHT22;1703;51.964;7.642;2023-05-10T09:21:59;16.70;99.90
3380;DHT22;1703;51.964;7.642;2023-05-10T09:24:29;16.80;99.90
3380;DHT22;1703;51.964;7.642;2023-05-10T09:26:57;16.90;99.90
3380;DHT22;1703;51.964;7.642;2023-05-10T09:29:24;17.00;99.90
3380;DHT22;1703;51.964;7.642;2023-05-10T09:31:52;17.00;99.90
3380;DHT22;1703;51.964;7.642;2023-05-10T09:34:29;17.00;99.90
3380;DHT22;1703;51.964;7.642;2023-05-10T09:36:57;16.90;99.90
3380;DHT22;1703;51.964;7.642;2023-05-10T09:39:32;16.90;99.90
3380;DHT22;1703;51.964;7.642;2023-05-10T09:42:03;17.00;99.90
3380;DHT22;1703;51.964;7.642;2023-05-10T09:44:31;17.00;99.90
3380;DHT22;1703;51.964;7.642;2023-05-10T09:46:58;17.10;99.90
3380;DHT22;1703;51.964;7.642;2023-05-10T09:49:24;17.10;99.90
3380;DHT22;1703;51.964;7.642;2023-05-10T09:52:00;17.10;99.90
3380;DHT22;1703;51.964;7.642;2023-05-10T09:54:28;17.10;99.90
3380;DHT22;1703;51.964;7.642;2023-05-10T09:56:55;16.90;99.90
3380;DHT22;1703;51.964;7.642;2023-05-10T09:59:25;17.00;99.90
3380;DHT22;1703;51.964;7.642;2023-05-10T10:01:52;17.00;99.90
3380;DHT22;1703;51.964;7.642;2023-05-10T10:04:20;17.10;99.90
3380;DHT22;1703;51.964;7.642;2023-05-10T10:06:47;17.20;99.90
3380;DHT22;1703;51.964;7.642;2023-05-10T10:09:24;17.20;99.90
3380;DHT22;1703;51.964;7.642;2023-05-10T10:11:51;17.10;99.90
3380;DHT22;1703;51.964;7.642;2023-05-10T10:14:18;17.10;99.90
3380;DHT22;1703;51.964;7.642;2023-05-10T10:16:47;17.20;99.90
3380;DHT22;1703;51.964;7.642;2023-05-10T10:19:14;17.30;99.90
3380;DHT22;1703;51.964;7.642;2023-05-10T10:21:41;17.40;99.90
3380;DHT22;1703;51.964;7.642;2023-05-10T10:24:08;17.40;99.90
3380;DHT22;1703;51.964;7.642;2023-05-10T10:26:35;17.30;99.90
3380;DHT22;1703;51.964;7.642;2023-05-10T10:29:21;17.30;99.90
3380;DHT22;1703;51.964;7.642;2023-05-10T10:31:55;17.30;99.90
3380;DHT22;1703;51.964;7.642;2023-05-10T10:34:26;17.30;99.90
3380;DHT22;1703;51.964;7.642;2023-05-10T10:36:55;17.30;99.90
3380;DHT22;1703;51.964;7.642;2023-05-10T10:39:23;17.40;99.90
3380;DHT22;1703;51.964;7.642;2023-05-10T10:41:52;17.60;99.90
3380;DHT22;1703;51.964;7.642;2023-05-10T10:44:23;17.70;99.90
3380;DHT22;1703;51.964;7.642;2023-05-10T10:47:22;17.90;99.90
3380;DHT22;1703;51.964;7.642;2023-05-10T10:50:06;18.10;99.90
3380;DHT22;1703;51.964;7.642;2023-05-10T10:52:34;18.10;99.90
3380;DHT22;1703;51.964;7.642;2023-05-10T10:55:04;18.00;99.90
3380;DHT22;1703;51.964;7.642;2023-05-10T10:57:33;18.00;99.90
3380;DHT22;1703;51.964;7.642;2023-05-10T11:00:20;17.90;99.90
3380;DHT22;1703;51.964;7.642;2023-05-10T11:02:51;18.00;99.90
3380;DHT22;1703;51.964;7.642;2023-05-10T11:05:34;17.90;99.90
3380;DHT22;1703;51.964;7.642;2023-05-10T11:08:17;17.80;99.90
3380;DHT22;1703;51.964;7.642;2023-05-10T11:10:52;17.80;99.90
3380;DHT22;1703;51.964;7.642;2023-05-10T11:13:30;17.90;99.90
3380;DHT22;1703;51.964;7.642;2023-05-10T11:15:58;18.00;99.90
3380;DHT22;1703;51.964;7.642;2023-05-10T11:18:28;18.10;99.90
3380;DHT22;1703;51.964;7.642;2023-05-10T11:20:57;18.20;99.90
3380;DHT22;1703;51.964;7.642;2023-05-10T11:23:30;18.20;99.90
3380;DHT22;1703;51.964;7.642;2023-05-10T11:25:57;18.40;99.90
3380;DHT22;1703;51.964;7.642;2023-05-10T11:28:26;18.50;99.90
3380;DHT22;1703;51.964;7.642;2023-05-10T11:30:53;18.50;99.90
3380;DHT22;1703;51.964;7.642;2023-05-10T11:33:21;18.30;99.90
3380;DHT22;1703;51.964;7.642;2023-05-10T11:35:49;18.20;99.90
3380;DHT22;1703;51.964;7.642;2023-05-10T11:38:15;18.00;99.90
3380;DHT22;1703;51.964;7.642;2023-05-10T11:40:43;17.80;99.90
3380;DHT22;1703;51.964;7.642;2023-05-10T11:43:10;17.80;99.90
3380;DHT22;1703;51.964;7.642;2023-05-10T11:45:38;17.60;99.90
3380;DHT22;1703;51.964;7.642;2023-05-10T11:48:06;17.40;99.90
3380;DHT22;1703;51.964;7.642;2023-05-10T11:50:33;17.30;99.90
3380;DHT22;1703;51.964;7.642;2023-05-10T11:53:01;17.30;99.90
3380;DHT22;1703;51.964;7.642;2023-05-10T11:55:28;17.40;99.90
3380;DHT22;1703;51.964;7.642;2023-05-10T11:58:00;17.50;99.90
3380;DHT22;1703;51.964;7.642;2023-05-10T12:00:28;17.60;99.90
3380;DHT22;1703;51.964;7.642;2023-05-10T12:02:55;17.70;99.90
3380;DHT22;1703;51.964;7.642;2023-05-10T12:05:22;17.90;99.90
3380;DHT22;1703;51.964;7.642;2023-05-10T12:07:49;18.00;99.90
3380;DHT22;1703;51.964;7.642;2023-05-10T12:10:25;18.20;99.90
3380;DHT22;1703;51.964;7.642;2023-05-10T12:12:52;18.30;99.90
3380;DHT22;1703;51.964;7.642;2023-05-10T12:15:20;18.10;99.90
3380;DHT22;1703;51.964;7.642;2023-05-10T12:17:48;18.00;99.90
3380;DHT22;1703;51.964;7.642;2023-05-10T12:20:17;17.90;99.90
3380;DHT22;1703;51.964;7.642;2023-05-10T12:22:45;17.70;99.90
3380;DHT22;1703;51.964;7.642;2023-05-10T12:25:12;17.60;99.90
3380;DHT22;1703;51.964;7.642;2023-05-10T12:27:40;17.60;99.90
3380;DHT22;1703;51.964;7.642;2023-05-10T12:30:08;17.60;99.90
3380;DHT22;1703;51.964;7.642;2023-05-10T12:32:39;17.50;99.90
3380;DHT22;1703;51.964;7.642;2023-05-10T12:35:06;17.50;99.90
3380;DHT22;1703;51.964;7.642;2023-05-10T12:37:34;17.50;99.90
3380;DHT22;1703;51.964;7.642;2023-05-10T12:40:06;17.50;99.90
3380;DHT22;1703;51.964;7.642;2023-05-10T12:42:33;17.60;99.90
3380;DHT22;1703;51.964;7.642;2023-05-10T12:45:02;17.70;99.90
3380;DHT22;1703;51.964;7.642;2023-05-10T12:47:30;17.70;99.90
3380;DHT22;1703;51.964;7.642;2023-05-10T12:49:57;17.90;99.90
3380;DHT22;1703;51.964;7.642;2023-05-10T12:52:24;18.00;99.90
3380;DHT22;1703;51.964;7.642;2023-05-10T12:54:51;18.20;99.90
3380;DHT22;1703;51.964;7.642;2023-05-10T12:57:18;18.20;99.90
3380;DHT22;1703;51.964;7.642;2023-05-10T12:59:45;18.40;99.90
3380;DHT22;1703;51.964;7.642;2023-05-10T13:02:13;18.30;99.90
3380;DHT22;1703;51.964;7.642;2023-05-10T13:04:40;18.30;99.90
3380;DHT22;1703;51.964;7.642;2023-05-10T13:07:07;18.50;99.90
3380;DHT22;1703;51.964;7.642;2023-05-10T13:09:34;18.50;99.90
3380;DHT22;1703;51.964;7.642;2023-05-10T13:12:02;18.50;99.90
3380;DHT22;1703;51.964;7.642;2023-05-10T13:14:29;18.40;99.90
3380;DHT22;1703;51.964;7.642;2023-05-10T13:16:56;18.40;99.90
3380;DHT22;1703;51.964;7.642;2023-05-10T13:19:25;18.30;99.90
3380;DHT22;1703;51.964;7.642;2023-05-10T13:21:52;18.20;99.90
3380;DHT22;1703;51.964;7.642;2023-05-10T13:24:19;18.10;99.90
3380;DHT22;1703;51.964;7.642;2023-05-10T13:26:46;18.00;99.90
3380;DHT22;1703;51.964;7.642;2023-05-10T13:29:12;18.10;99.90
3380;DHT22;1703;51.964;7.642;2023-05-10T13:31:39;18.00;99.90
3380;DHT22;1703;51.964;7.642;2023-05-10T13:34:08;17.90;99.90
3380;DHT22;1703;51.964;7.642;2023-05-10T13:36:37;17.80;99.90
3380;DHT22;1703;51.964;7.642;2023-05-10T13:39:03;17.60;99.90
3380;DHT22;1703;51.964;7.642;2023-05-10T13:41:30;17.50;99.90
3380;DHT22;1703;51.964;7.642;2023-05-10T13:43:57;17.40;99.90
3380;DHT22;1703;51.964;7.642;2023-05-10T13:46:24;17.20;99.90
3380;DHT22;1703;51.964;7.642;2023-05-10T13:48:51;17.20;99.90
3380;DHT22;1703;51.964;7.642;2023-05-10T13:51:18;17.10;99.90
3380;DHT22;1703;51.964;7.642;2023-05-10T13:53:46;17.00;99.90
3380;DHT22;1703;51.964;7.642;2023-05-10T13:56:13;17.00;99.90
3380;DHT22;1703;51.964;7.642;2023-05-10T13:58:40;17.00;99.90
3380;DHT22;1703;51.964;7.642;2023-05-10T14:01:07;17.00;99.90
3380;DHT22;1703;51.964;7.642;2023-05-10T14:03:34;17.10;99.90
3380;DHT22;1703;51.964;7.642;2023-05-10T14:06:01;17.10;99.90
3380;DHT22;1703;51.964;7.642;2023-05-10T14:08:28;17.10;99.90
3380;DHT22;1703;51.964;7.642;2023-05-10T14:10:56;17.20;99.90
3380;DHT22;1703;51.964;7.642;2023-05-10T14:13:23;17.30;99.90
3380;DHT22;1703;51.964;7.642;2023-05-10T14:15:52;17.40;99.90
3380;DHT22;1703;51.964;7.642;2023-05-10T14:18:19;17.40;99.90
3380;DHT22;1703;51.964;7.642;2023-05-10T14:20:46;17.30;99.90
3380;DHT22;1703;51.964;7.642;2023-05-10T14:23:13;17.20;99.90
3380;DHT22;1703;51.964;7.642;2023-05-10T14:25:40;17.10;99.90
3380;DHT22;1703;51.964;7.642;2023-05-10T14:28:09;17.10;99.90
3380;DHT22;1703;51.964;7.642;2023-05-10T14:30:35;17.10;99.90
3380;DHT22;1703;51.964;7.642;2023-05-10T14:33:02;17.20;99.90
3380;DHT22;1703;51.964;7.642;2023-05-10T14:35:29;17.10;99.90
3380;DHT22;1703;51.964;7.642;2023-05-10T14:37:57;17.00;99.90
3380;DHT22;1703;51.964;7.642;2023-05-10T14:40:24;17.00;99.90
3380;DHT22;1703;51.964;7.642;2023-05-10T14:42:51;17.10;99.90
3380;DHT22;1703;51.964;7.642;2023-05-10T14:45:20;17.30;99.90
3380;DHT22;1703;51.964;7.642;2023-05-10T14:47:48;17.40;99.90
3380;DHT22;1703;51.964;7.642;2023-05-10T14:50:15;17.60;99.90
3380;DHT22;1703;51.964;7.642;2023-05-10T14:52:43;17.70;99.90
3380;DHT22;1703;51.964;7.642;2023-05-10T14:55:10;17.80;99.90
3380;DHT22;1703;51.964;7.642;2023-05-10T14:57:37;17.90;99.90
3380;DHT22;1703;51.964;7.642;2023-05-10T15:00:05;17.90;99.90
3380;DHT22;1703;51.964;7.642;2023-05-10T15:02:33;17.90;99.90
3380;DHT22;1703;51.964;7.642;2023-05-10T15:05:00;17.90;99.90
3380;DHT22;1703;51.964;7.642;2023-05-10T15:07:27;17.90;99.90
3380;DHT22;1703;51.964;7.642;2023-05-10T15:09:53;17.90;99.90
3380;DHT22;1703;51.964;7.642;2023-05-10T15:12:20;17.80;99.90
3380;DHT22;1703;51.964;7.642;2023-05-10T15:14:47;17.90;99.90
3380;DHT22;1703;51.964;7.642;2023-05-10T15:17:14;17.90;99.90
3380;DHT22;1703;51.964;7.642;2023-05-10T15:19:43;18.10;99.90
3380;DHT22;1703;51.964;7.642;2023-05-10T15:22:10;18.20;99.90
3380;DHT22;1703;51.964;7.642;2023-05-10T15:24:36;18.30;99.90
3380;DHT22;1703;51.964;7.642;2023-05-10T15:27:03;18.30;99.90
3380;DHT22;1703;51.964;7.642;2023-05-10T15:29:30;18.40;99.90
3380;DHT22;1703;51.964;7.642;2023-05-10T15:31:58;18.20;99.90
3380;DHT22;1703;51.964;7.642;2023-05-10T15:34:32;18.20;99.90
3380;DHT22;1703;51.964;7.642;2023-05-10T15:37:00;18.20;99.90
3380;DHT22;1703;51.964;7.642;2023-05-10T15:39:27;18.10;99.90
3380;DHT22;1703;51.964;7.642;2023-05-10T15:41:54;18.10;99.90
3380;DHT22;1703;51.964;7.642;2023-05-10T15:44:21;18.10;99.90
3380;DHT22;1703;51.964;7.642;2023-05-10T15:46:47;18.10;99.90
3380;DHT22;1703;51.964;7.642;2023-05-10T15:49:14;18.00;99.90
3380;DHT22;1703;51.964;7.642;2023-05-10T15:51:41;18.00;99.90
3380;DHT22;1703;51.964;7.642;2023-05-10T15:54:09;18.00;99.90
3380;DHT22;1703;51.964;7.642;2023-05-10T15:56:36;18.10;99.90
3380;DHT22;1703;51.964;7.642;2023-05-10T15:59:04;18.20;99.90
3380;DHT22;1703;51.964;7.642;2023-05-10T16:01:33;18.20;99.90
3380;DHT22;1703;51.964;7.642;2023-05-10T16:04:00;18.10;99.90
3380;DHT22;1703;51.964;7.642;2023-05-10T16:06:27;18.20;99.90
3380;DHT22;1703;51.964;7.642;2023-05-10T16:08:53;18.30;99.90
3380;DHT22;1703;51.964;7.642;2023-05-10T16:11:21;18.40;99.90
3380;DHT22;1703;51.964;7.642;2023-05-10T16:13:48;18.50;99.90